createdAt,value
2022-11-12T00:00:54.369Z,18.08
2022-11-12T00:04:01.594Z,18.18
2022-11-12T00:07:08.572Z,18.32
2022-11-12T00:10:15.571Z,18.39
2022-11-12T00:13:29.484Z,18.51
2022-11-12T00:16:37.643Z,18.69
2022-11-12T00:19:37.832Z,18.64
2022-11-12T00:22:44.570Z,18.56
2022-11-12T00:25:52.596Z,18.59
2022-11-12T00:28:59.496Z,18.69
2022-11-12T00:32:00.021Z,18.73
2022-11-12T00:35:07.754Z,18.80
2022-11-12T00:38:09.854Z,18.72
2022-11-12T00:41:17.557Z,18.67
2022-11-12T00:44:17.847Z,18.44
2022-11-12T00:47:25.575Z,18.28
2022-11-12T00:50:25.873Z,18.20
2022-11-12T00:53:32.512Z,18.19
2022-11-12T00:56:36.211Z,18.40
2022-11-12T00:59:43.531Z,18.30
2022-11-12T01:02:50.424Z,18.26
2022-11-12T01:05:57.480Z,18.42
2022-11-12T01:08:58.912Z,18.53
2022-11-12T01:12:06.472Z,18.48
2022-11-12T01:15:06.895Z,18.44
2022-11-12T01:18:13.628Z,18.38
2022-11-12T01:21:15.949Z,18.34
2022-11-12T01:24:23.468Z,18.31
2022-11-12T01:27:31.937Z,18.26
2022-11-12T01:30:31.741Z,18.16
2022-11-12T01:33:39.483Z,18.14
2022-11-12T01:36:41.825Z,18.13
2022-11-12T01:39:48.491Z,18.15
2022-11-12T01:42:58.393Z,18.17
2022-11-12T01:46:07.559Z,18.02
2022-11-12T01:49:20.549Z,18.02
2022-11-12T01:52:51.573Z,18.08
2022-11-12T01:56:00.546Z,18.13
2022-11-12T01:59:08.863Z,18.15
2022-11-12T02:02:16.552Z,18.19
2022-11-12T02:05:19.320Z,18.20
2022-11-12T02:08:27.722Z,18.29
2022-11-12T02:11:41.405Z,18.37
2022-11-12T02:14:49.552Z,18.38
2022-11-12T02:17:49.980Z,18.45
2022-11-12T02:21:06.571Z,18.53
2022-11-12T02:24:08.823Z,18.64
2022-11-12T02:27:17.565Z,18.68
2022-11-12T02:30:18.845Z,18.75
2022-11-12T02:33:26.781Z,18.90
2022-11-12T02:36:27.827Z,18.94
2022-11-12T02:39:35.488Z,19.16
2022-11-12T02:42:42.455Z,19.23
2022-11-12T02:45:42.876Z,19.39
2022-11-12T02:48:50.537Z,19.49
2022-11-12T02:51:57.570Z,19.67
2022-11-12T02:55:04.526Z,19.87
2022-11-12T02:58:11.543Z,20.02
2022-11-12T03:01:11.882Z,20.19
2022-11-12T03:04:19.833Z,20.31
2022-11-12T03:07:19.869Z,20.31
2022-11-12T03:10:27.547Z,20.59
2022-11-12T03:13:40.543Z,20.89
2022-11-12T03:16:47.552Z,21.08
2022-11-12T03:19:48.838Z,21.24
2022-11-12T03:23:14.475Z,21.51
2022-11-12T03:26:14.807Z,21.66
2022-11-12T03:29:21.523Z,21.96
2022-11-12T03:32:21.822Z,22.21
2022-11-12T03:35:22.533Z,22.44
2022-11-12T03:38:22.818Z,22.67
2022-11-12T03:41:29.521Z,22.99
2022-11-12T03:44:36.550Z,23.61
2022-11-12T03:47:36.925Z,23.76
2022-11-12T03:50:43.520Z,24.20
2022-11-12T03:53:50.515Z,24.42
2022-11-12T03:56:51.779Z,24.96
2022-11-12T03:59:58.559Z,25.64
2022-11-12T04:03:00.726Z,25.95
2022-11-12T04:06:25.531Z,26.56
2022-11-12T04:09:25.718Z,27.00
2022-11-12T04:12:51.545Z,27.01
2022-11-12T04:16:18.553Z,27.32
2022-11-12T04:19:39.130Z,27.53
2022-11-12T04:22:45.560Z,27.72
2022-11-12T04:26:06.174Z,27.91
2022-11-12T04:29:37.260Z,27.83
2022-11-12T04:32:39.827Z,27.86
2022-11-12T04:35:47.467Z,28.30
2022-11-12T04:38:48.822Z,28.14
2022-11-12T04:42:13.460Z,28.41
2022-11-12T04:45:18.790Z,28.12
2022-11-12T04:48:27.840Z,27.92
2022-11-12T04:51:46.146Z,28.13
2022-11-12T04:54:52.467Z,26.10
2022-11-12T04:58:01.045Z,27.38
2022-11-12T05:01:03.147Z,27.57
2022-11-12T05:04:10.537Z,27.62
2022-11-12T05:07:11.505Z,27.66
2022-11-12T05:10:19.542Z,27.63
2022-11-12T05:13:29.290Z,27.71
2022-11-12T05:16:30.525Z,27.27
2022-11-12T05:19:37.617Z,27.83
2022-11-12T05:22:47.874Z,28.21
2022-11-12T05:26:01.541Z,28.27
2022-11-12T05:29:07.587Z,27.82
2022-11-12T05:32:16.525Z,27.99
2022-11-12T05:35:23.522Z,28.35
2022-11-12T05:38:25.145Z,28.10
2022-11-12T05:41:57.970Z,28.70
2022-11-12T05:45:01.449Z,28.49
2022-11-12T05:48:03.264Z,28.86
2022-11-12T05:51:13.642Z,28.16
2022-11-12T05:54:21.529Z,28.67
2022-11-12T05:57:28.441Z,28.78
2022-11-12T06:00:35.522Z,28.03
2022-11-12T06:03:36.168Z,28.30
2022-11-12T06:06:44.622Z,28.25
2022-11-12T06:09:45.663Z,28.37
2022-11-12T06:12:52.531Z,27.94
2022-11-12T06:16:02.531Z,28.15
2022-11-12T06:19:02.858Z,28.36
2022-11-12T06:22:09.526Z,28.13
2022-11-12T06:25:16.507Z,28.46
2022-11-12T06:28:23.594Z,28.19
2022-11-12T06:31:31.525Z,28.06
2022-11-12T06:34:38.529Z,27.95
2022-11-12T06:37:46.511Z,28.49
2022-11-12T06:40:53.531Z,28.25
2022-11-12T06:44:01.528Z,28.59
2022-11-12T06:47:08.535Z,28.75
2022-11-12T06:50:08.803Z,28.30
2022-11-12T06:53:15.530Z,28.33
2022-11-12T06:56:22.581Z,28.36
2022-11-12T06:59:23.713Z,28.61
2022-11-12T07:02:31.531Z,28.81
2022-11-12T07:05:38.547Z,28.60
2022-11-12T07:08:46.588Z,28.43
2022-11-12T07:11:59.396Z,28.66
2022-11-12T07:15:06.507Z,28.86
2022-11-12T07:18:13.574Z,29.01
2022-11-12T07:21:17.690Z,28.64
2022-11-12T07:24:24.530Z,28.95
2022-11-12T07:27:24.895Z,28.94
2022-11-12T07:30:32.543Z,29.12
2022-11-12T07:33:34.063Z,28.98
2022-11-12T07:36:41.509Z,28.84
2022-11-12T07:39:49.444Z,28.99
2022-11-12T07:42:56.520Z,28.64
2022-11-12T07:46:01.934Z,28.65
2022-11-12T07:49:10.586Z,28.61
2022-11-12T07:52:10.791Z,28.97
2022-11-12T07:55:18.493Z,29.23
2022-11-12T07:58:25.921Z,28.62
2022-11-12T08:01:55.526Z,29.00
2022-11-12T08:04:56.804Z,28.48
2022-11-12T08:08:04.552Z,28.37
2022-11-12T08:11:18.376Z,28.66
2022-11-12T08:14:25.447Z,28.71
2022-11-12T08:17:26.805Z,28.74
2022-11-12T08:20:34.519Z,28.69
2022-11-12T08:23:36.348Z,28.70
2022-11-12T08:26:44.505Z,28.31
2022-11-12T08:29:44.810Z,28.29
2022-11-12T08:32:51.425Z,28.70
2022-11-12T08:35:58.536Z,28.37
2022-11-12T08:38:59.690Z,28.62
2022-11-12T08:42:06.532Z,28.54
2022-11-12T08:45:13.527Z,28.33
2022-11-12T08:48:19.988Z,28.78
2022-11-12T08:51:27.429Z,28.62
2022-11-12T08:54:27.859Z,28.38
2022-11-12T08:57:34.599Z,28.42
2022-11-12T09:00:45.800Z,28.38
2022-11-12T09:03:52.522Z,27.92
2022-11-12T09:06:54.122Z,28.35
2022-11-12T09:10:01.513Z,28.36
2022-11-12T09:13:15.390Z,28.16
2022-11-12T09:16:22.442Z,28.24
2022-11-12T09:19:24.910Z,28.40
2022-11-12T09:22:31.593Z,28.31
2022-11-12T09:25:32.971Z,28.21
2022-11-12T09:28:41.523Z,28.34
2022-11-12T09:31:41.863Z,28.25
2022-11-12T09:34:48.539Z,28.18
2022-11-12T09:37:55.507Z,28.18
2022-11-12T09:41:12.329Z,27.86
2022-11-12T09:44:36.677Z,27.64
2022-11-12T09:47:44.671Z,28.06
2022-11-12T09:51:06.515Z,28.06
2022-11-12T09:54:27.076Z,28.15
2022-11-12T09:57:34.573Z,28.11
2022-11-12T10:00:35.428Z,28.10
2022-11-12T10:03:54.420Z,28.05
2022-11-12T10:07:01.716Z,28.02
2022-11-12T10:10:28.439Z,27.97
2022-11-12T10:14:08.534Z,27.94
2022-11-12T10:17:57.496Z,27.76
2022-11-12T10:21:23.519Z,27.82
2022-11-12T10:24:31.431Z,27.77
2022-11-12T10:27:47.520Z,27.78
2022-11-12T10:30:48.519Z,27.68
2022-11-12T10:33:56.597Z,27.56
2022-11-12T10:37:06.373Z,27.58
2022-11-12T10:40:13.588Z,27.58
2022-11-12T10:43:38.353Z,27.56
2022-11-12T10:46:46.417Z,27.48
2022-11-12T10:49:46.779Z,27.43
2022-11-12T10:53:14.528Z,27.40
2022-11-12T10:56:45.416Z,27.33
2022-11-12T10:59:53.529Z,27.30
2022-11-12T11:03:02.421Z,27.18
2022-11-12T11:06:09.003Z,27.08
2022-11-12T11:09:29.596Z,26.90
2022-11-12T11:12:29.660Z,26.61
2022-11-12T11:15:38.511Z,26.56
2022-11-12T11:18:49.439Z,26.54
2022-11-12T11:22:03.418Z,26.40
2022-11-12T11:25:31.539Z,26.33
2022-11-12T11:29:40.513Z,26.10
2022-11-12T11:32:49.411Z,25.77
2022-11-12T11:35:56.423Z,25.77
2022-11-12T11:39:26.806Z,25.62
2022-11-12T11:43:20.409Z,25.59
2022-11-12T11:46:28.531Z,25.45
2022-11-12T11:50:01.769Z,25.40
2022-11-12T11:53:33.514Z,25.18
2022-11-12T11:56:43.811Z,25.06
2022-11-12T12:00:30.491Z,24.93
2022-11-12T12:03:51.816Z,24.71
2022-11-12T12:07:07.591Z,24.61
2022-11-12T12:10:46.289Z,24.52
2022-11-12T12:14:08.501Z,24.42
2022-11-12T12:17:24.739Z,24.32
2022-11-12T12:20:48.508Z,24.21
2022-11-12T12:23:54.779Z,24.11
2022-11-12T12:27:27.510Z,24.07
2022-11-12T12:30:32.111Z,23.97
2022-11-12T12:34:10.489Z,23.83
2022-11-12T12:37:32.801Z,23.75
2022-11-12T12:40:49.526Z,23.70
2022-11-12T12:43:59.198Z,23.61
2022-11-12T12:47:08.540Z,23.53
2022-11-12T12:50:11.958Z,23.45
2022-11-12T12:53:35.408Z,23.46
2022-11-12T12:56:46.837Z,23.48
2022-11-12T12:59:47.734Z,23.28
2022-11-12T13:02:55.494Z,23.22
2022-11-12T13:06:25.998Z,23.30
2022-11-12T13:09:32.572Z,23.20
2022-11-12T13:13:19.353Z,23.18
2022-11-12T13:16:58.417Z,23.06
2022-11-12T13:20:02.602Z,23.02
2022-11-12T13:23:09.516Z,22.98
2022-11-12T13:26:48.825Z,22.93
2022-11-12T13:29:56.490Z,22.76
2022-11-12T13:32:56.798Z,22.81
2022-11-12T13:36:40.547Z,22.87
2022-11-12T13:39:43.924Z,22.68
2022-11-12T13:42:57.518Z,22.77
2022-11-12T13:46:24.500Z,22.87
2022-11-12T13:49:24.994Z,22.70
2022-11-12T13:52:34.498Z,22.63
2022-11-12T13:55:35.673Z,22.58
2022-11-12T13:58:51.392Z,22.53
2022-11-12T14:01:53.155Z,22.46
2022-11-12T14:05:01.499Z,22.40
2022-11-12T14:08:17.498Z,22.46
2022-11-12T14:11:51.487Z,22.37
2022-11-12T14:15:03.790Z,22.52
2022-11-12T14:18:18.481Z,22.42
2022-11-12T14:21:19.586Z,22.44
2022-11-12T14:24:27.471Z,22.34
2022-11-12T14:27:38.462Z,22.28
2022-11-12T14:30:45.472Z,22.31
2022-11-12T14:33:53.421Z,22.28
2022-11-12T14:37:03.414Z,22.14
2022-11-12T14:40:11.567Z,22.08
2022-11-12T14:43:18.019Z,22.16
2022-11-12T14:46:54.425Z,22.03
2022-11-12T14:49:57.818Z,22.04
2022-11-12T14:53:14.401Z,22.14
2022-11-12T14:56:20.770Z,22.08
2022-11-12T14:59:28.472Z,21.97
2022-11-12T15:02:55.669Z,21.91
2022-11-12T15:06:05.387Z,21.89
2022-11-12T15:09:09.464Z,21.86
2022-11-12T15:12:19.407Z,22.00
2022-11-12T15:15:28.746Z,21.81
2022-11-12T15:18:38.404Z,21.78
2022-11-12T15:21:46.497Z,21.74
2022-11-12T15:24:49.621Z,21.78
2022-11-12T15:27:58.554Z,21.74
2022-11-12T15:31:07.970Z,21.74
2022-11-12T15:34:35.498Z,21.74
2022-11-12T15:37:43.919Z,21.65
2022-11-12T15:40:57.844Z,21.58
2022-11-12T15:43:58.462Z,21.54
2022-11-12T15:47:07.450Z,21.45
2022-11-12T15:50:17.829Z,21.58
2022-11-12T15:53:24.579Z,21.43
2022-11-12T15:56:25.896Z,21.40
2022-11-12T15:59:33.420Z,21.30
2022-11-12T16:02:34.578Z,21.28
2022-11-12T16:05:41.410Z,21.27
2022-11-12T16:08:49.476Z,21.35
2022-11-12T16:11:57.422Z,21.27
2022-11-12T16:15:10.376Z,21.24
2022-11-12T16:18:13.936Z,21.15
2022-11-12T16:21:21.083Z,21.09
2022-11-12T16:24:22.711Z,21.06
2022-11-12T16:27:30.484Z,21.02
2022-11-12T16:30:33.656Z,21.03
2022-11-12T16:33:40.478Z,21.02
2022-11-12T16:36:41.924Z,21.10
2022-11-12T16:39:49.557Z,21.02
2022-11-12T16:42:51.058Z,20.95
2022-11-12T16:45:59.414Z,20.99
2022-11-12T16:48:59.707Z,21.02
2022-11-12T16:52:06.475Z,20.96
2022-11-12T16:55:08.374Z,20.98
2022-11-12T16:58:15.486Z,20.96
2022-11-12T17:01:30.476Z,20.82
2022-11-12T17:04:40.495Z,20.72
2022-11-12T17:07:47.470Z,20.78
2022-11-12T17:10:54.488Z,20.73
2022-11-12T17:14:01.486Z,20.68
2022-11-12T17:17:01.768Z,20.63
2022-11-12T17:20:09.376Z,20.65
2022-11-12T17:23:16.376Z,20.63
2022-11-12T17:26:26.501Z,20.63
2022-11-12T17:29:33.472Z,20.59
2022-11-12T17:32:34.262Z,20.51
2022-11-12T17:35:42.488Z,20.46
2022-11-12T17:38:44.339Z,20.47
2022-11-12T17:41:51.461Z,20.46
2022-11-12T17:44:52.695Z,20.44
2022-11-12T17:47:59.451Z,20.44
2022-11-12T17:51:27.482Z,20.40
2022-11-12T17:54:28.762Z,20.38
2022-11-12T17:57:35.455Z,20.35
2022-11-12T18:00:36.728Z,20.23
2022-11-12T18:03:47.482Z,20.20
2022-11-12T18:06:47.819Z,20.15
2022-11-12T18:09:54.409Z,20.26
2022-11-12T18:13:01.550Z,20.17
2022-11-12T18:16:13.508Z,20.13
2022-11-12T18:19:23.467Z,20.05
2022-11-12T18:22:23.711Z,20.14
2022-11-12T18:25:31.750Z,20.15
2022-11-12T18:28:38.472Z,20.04
2022-11-12T18:31:41.490Z,20.05
2022-11-12T18:34:52.522Z,20.02
2022-11-12T18:37:53.888Z,19.86
2022-11-12T18:41:09.475Z,19.89
2022-11-12T18:44:19.879Z,19.88
2022-11-12T18:47:21.934Z,19.89
2022-11-12T18:50:29.465Z,19.80
2022-11-12T18:53:31.078Z,19.91
2022-11-12T18:56:37.464Z,19.92
2022-11-12T18:59:44.706Z,19.88
2022-11-12T19:02:52.505Z,19.90
2022-11-12T19:06:06.452Z,19.91
2022-11-12T19:09:12.829Z,19.80
2022-11-12T19:12:20.455Z,19.79
2022-11-12T19:15:27.909Z,19.76
2022-11-12T19:18:28.678Z,19.75
2022-11-12T19:21:29.942Z,19.73
2022-11-12T19:24:36.460Z,19.73
2022-11-12T19:27:37.858Z,19.72
2022-11-12T19:30:44.360Z,19.65
2022-11-12T19:33:53.380Z,19.69
2022-11-12T19:37:31.584Z,19.57
2022-11-12T19:40:21.024Z,19.60
2022-11-12T19:43:29.373Z,19.48
2022-11-12T19:46:32.791Z,19.45
2022-11-12T19:49:40.369Z,19.44
2022-11-12T19:52:41.642Z,19.38
2022-11-12T19:55:49.361Z,19.36
2022-11-12T19:58:51.156Z,19.34
2022-11-12T20:01:59.360Z,19.27
2022-11-12T20:05:06.489Z,19.23
2022-11-12T20:08:06.891Z,19.24
2022-11-12T20:11:13.421Z,19.32
2022-11-12T20:14:21.364Z,19.13
2022-11-12T20:17:28.447Z,19.06
2022-11-12T20:20:35.352Z,18.97
2022-11-12T20:23:43.451Z,19.02
2022-11-12T20:26:44.734Z,18.97
2022-11-12T20:29:51.374Z,18.97
2022-11-12T20:32:58.752Z,19.03
2022-11-12T20:36:08.136Z,19.00
2022-11-12T20:39:15.448Z,19.04
2022-11-12T20:42:22.446Z,19.10
2022-11-12T20:45:22.732Z,18.97
2022-11-12T20:48:30.546Z,19.01
2022-11-12T20:51:34.009Z,18.92
2022-11-12T20:54:40.432Z,18.98
2022-11-12T20:57:41.777Z,19.06
2022-11-12T21:00:49.447Z,18.95
2022-11-12T21:03:58.442Z,18.91
2022-11-12T21:07:04.863Z,19.05
2022-11-12T21:10:12.346Z,19.21
2022-11-12T21:13:12.612Z,18.97
2022-11-12T21:16:21.432Z,18.81
2022-11-12T21:19:21.704Z,18.80
2022-11-12T21:22:29.411Z,18.82
2022-11-12T21:25:29.630Z,18.73
2022-11-12T21:28:37.476Z,18.78
2022-11-12T21:31:37.667Z,18.77
2022-11-12T21:34:44.445Z,18.73
2022-11-12T21:37:44.638Z,18.70
2022-11-12T21:40:51.342Z,18.60
2022-11-12T21:43:52.264Z,18.53
2022-11-12T21:46:59.340Z,18.52
2022-11-12T21:49:59.632Z,18.53
2022-11-12T21:53:06.434Z,18.58
2022-11-12T21:56:13.961Z,18.56
2022-11-12T21:59:21.343Z,18.45
2022-11-12T22:02:21.629Z,18.55
2022-11-12T22:05:29.352Z,18.51
2022-11-12T22:08:30.822Z,18.56
2022-11-12T22:11:38.357Z,18.52
2022-11-12T22:14:52.430Z,18.57
2022-11-12T22:17:53.589Z,18.52
2022-11-12T22:21:11.430Z,18.53
2022-11-12T22:24:12.903Z,18.50
2022-11-12T22:27:19.446Z,18.41
2022-11-12T22:30:19.626Z,18.36
2022-11-12T22:33:26.323Z,18.42
2022-11-12T22:36:29.646Z,18.38
2022-11-12T22:39:37.340Z,18.35
2022-11-12T22:42:45.424Z,18.34
2022-11-12T22:45:52.329Z,18.29
2022-11-12T22:49:01.358Z,18.18
2022-11-12T22:52:01.774Z,17.98
2022-11-12T22:55:08.353Z,18.00
2022-11-12T22:58:08.750Z,18.16
2022-11-12T23:01:18.445Z,18.26
2022-11-12T23:04:18.723Z,18.20
2022-11-12T23:07:26.415Z,18.28
2022-11-12T23:10:26.681Z,18.30
2022-11-12T23:13:35.333Z,18.40
2022-11-12T23:16:45.446Z,18.27
2022-11-12T23:19:52.415Z,18.31
2022-11-12T23:22:53.067Z,18.38
2022-11-12T23:26:00.340Z,18.35
2022-11-12T23:29:08.411Z,18.44
2022-11-12T23:32:08.601Z,18.41
2022-11-12T23:35:15.417Z,18.27
2022-11-12T23:38:15.621Z,18.35
2022-11-12T23:41:24.448Z,18.26
2022-11-12T23:44:25.627Z,18.28
2022-11-12T23:47:32.433Z,18.26
2022-11-12T23:50:32.608Z,18.29
2022-11-12T23:53:39.343Z,18.24
2022-11-12T23:56:46.338Z,18.32
2022-11-12T23:59:46.714Z,18.22
